Time;durP1;ratioP1;P1;durP2;ratioP2;P2;SDS_P1;SDS_P2;PMS_P1;PMS_P2;Temp;Humidity;BMP_temperature;BMP_pressure;BME280_temperature;BME280_humidity;BME280_pressure;Samples;Min_cycle;Max_cycle;Signal;HPM_P1;HPM_P2
2022/03/26 00:00:14;;;;;;;;;;;18.20;36.80;;;;;;5072536;28;42917;-79
2022/03/26 00:02:40;;;;;;;;;;;18.00;36.50;;;;;;5073433;28;43096;-80
2022/03/26 00:05:06;;;;;;;;;;;18.20;36.90;;;;;;5073715;28;43713;-81
2022/03/26 00:07:31;;;;;;;;;;;18.10;36.40;;;;;;5065450;28;45175;-81
2022/03/26 00:09:57;;;;;;;;;;;16.70;35.80;;;;;;5053421;28;43433;-81
2022/03/26 00:12:22;;;;;;;;;;;18.10;36.40;;;;;;5072134;28;43096;-74
2022/03/26 00:14:48;;;;;;;;;;;18.10;36.40;;;;;;5073308;28;43017;-73
2022/03/26 00:17:13;;;;;;;;;;;18.20;36.50;;;;;;5071887;28;43267;-74
2022/03/26 00:19:39;;;;;;;;;;;18.00;36.80;;;;;;5072341;28;42993;-73
2022/03/26 00:22:05;;;;;;;;;;;18.10;36.90;;;;;;5073152;28;42950;-74
2022/03/26 00:24:30;;;;;;;;;;;18.20;36.90;;;;;;5072052;28;43384;-73
2022/03/26 00:26:56;;;;;;;;;;;18.10;36.80;;;;;;5074965;28;43017;-74
2022/03/26 00:29:22;;;;;;;;;;;18.20;36.40;;;;;;5073021;28;42924;-74
2022/03/26 00:31:47;;;;;;;;;;;18.20;36.90;;;;;;5074248;28;43058;-74
2022/03/26 00:34:13;;;;;;;;;;;18.10;36.80;;;;;;5068102;28;43182;-73
2022/03/26 00:36:38;;;;;;;;;;;18.10;36.90;;;;;;5078620;28;42993;-73
2022/03/26 00:39:04;;;;;;;;;;;18.10;36.40;;;;;;5084251;28;43028;-73
2022/03/26 00:41:30;;;;;;;;;;;18.10;36.80;;;;;;5084745;28;43029;-73
2022/03/26 00:43:55;;;;;;;;;;;18.10;36.30;;;;;;5084262;28;42868;-74
2022/03/26 00:46:21;;;;;;;;;;;18.10;36.50;;;;;;5083789;28;43090;-74
2022/03/26 00:48:47;;;;;;;;;;;18.20;37.00;;;;;;5084357;28;43874;-74
2022/03/26 00:51:16;;;;;;;;;;;18.10;37.00;;;;;;5084683;28;42924;-72
2022/03/26 00:53:42;;;;;;;;;;;18.00;37.00;;;;;;5071010;28;43606;-73
2022/03/26 00:56:08;;;;;;;;;;;18.10;36.60;;;;;;5043629;28;42860;-73
2022/03/26 00:58:33;;;;;;;;;;;18.00;37.10;;;;;;5043168;28;43015;-75
2022/03/26 01:00:59;;;;;;;;;;;18.20;36.60;;;;;;5042930;28;43192;-73
2022/03/26 01:03:24;;;;;;;;;;;18.20;36.60;;;;;;5042379;28;43026;-74
2022/03/26 01:05:50;;;;;;;;;;;18.20;36.70;;;;;;5046251;28;43136;-72
2022/03/26 01:08:16;;;;;;;;;;;18.10;36.50;;;;;;5046529;28;43072;-72
2022/03/26 01:10:44;;;;;;;;;;;18.10;36.60;;;;;;5045764;28;43192;-74
2022/03/26 01:13:10;;;;;;;;;;;18.10;36.60;;;;;;5046546;28;43140;-74
2022/03/26 01:15:35;;;;;;;;;;;18.20;36.80;;;;;;5045468;28;43080;-72
2022/03/26 01:18:01;;;;;;;;;;;18.00;37.10;;;;;;5044967;28;43537;-73
2022/03/26 01:20:26;;;;;;;;;;;18.20;36.50;;;;;;5045911;28;42943;-73
2022/03/26 01:22:52;;;;;;;;;;;18.10;36.40;;;;;;5046271;28;43680;-73
2022/03/26 01:25:17;;;;;;;;;;;18.00;36.50;;;;;;5045827;28;43031;-78
2022/03/26 01:27:43;;;;;;;;;;;18.00;36.50;;;;;;5044976;28;43986;-73
2022/03/26 01:30:09;;;;;;;;;;;18.10;36.60;;;;;;5046071;28;42964;-73
2022/03/26 01:32:34;;;;;;;;;;;18.00;36.20;;;;;;5045756;28;43073;-73
2022/03/26 01:35:00;;;;;;;;;;;18.10;36.70;;;;;;5046016;28;43174;-73
2022/03/26 01:37:25;;;;;;;;;;;18.10;36.60;;;;;;5046217;28;43439;-73
2022/03/26 01:39:51;;;;;;;;;;;17.90;36.90;;;;;;5045778;28;43001;-72
2022/03/26 01:42:17;;;;;;;;;;;18.10;36.60;;;;;;5056036;28;43539;-74
2022/03/26 01:44:43;;;;;;;;;;;18.10;37.00;;;;;;5065988;28;42934;-73
2022/03/26 01:47:09;;;;;;;;;;;18.10;36.60;;;;;;5066057;28;43389;-73
2022/03/26 01:49:34;;;;;;;;;;;18.20;36.50;;;;;;5065732;28;43177;-74
2022/03/26 01:52:01;;;;;;;;;;;17.90;36.90;;;;;;5065507;28;42934;-73
2022/03/26 01:54:27;;;;;;;;;;;18.10;36.50;;;;;;5065957;28;43242;-74
2022/03/26 01:56:56;;;;;;;;;;;18.10;37.00;;;;;;5065299;28;44082;-73
2022/03/26 01:59:25;;;;;;;;;;;18.00;36.50;;;;;;5080087;28;42850;-73
2022/03/26 02:01:51;;;;;;;;;;;18.10;35.20;;;;;;5085586;28;43521;-73
2022/03/26 02:04:17;;;;;;;;;;;18.00;36.80;;;;;;5085818;28;42887;-73
2022/03/26 02:06:42;;;;;;;;;;;18.10;36.60;;;;;;5085451;28;43104;-74
2022/03/26 02:09:11;;;;;;;;;;;18.10;36.60;;;;;;5085745;28;42946;-73
2022/03/26 02:11:37;;;;;;;;;;;18.00;36.40;;;;;;5085615;28;43486;-74
2022/03/26 02:14:03;;;;;;;;;;;18.50;37.10;;;;;;5085488;27;43227;-73
2022/03/26 02:16:30;;;;;;;;;;;18.10;36.60;;;;;;5085785;28;42940;-73
2022/03/26 02:18:55;;;;;;;;;;;18.20;37.10;;;;;;5064376;28;42859;-75
2022/03/26 02:21:21;;;;;;;;;;;18.10;36.60;;;;;;5084780;28;43186;-74
2022/03/26 02:23:47;;;;;;;;;;;18.10;36.60;;;;;;5085715;28;42974;-73
2022/03/26 02:26:16;;;;;;;;;;;18.10;37.00;;;;;;5084912;28;43359;-73
2022/03/26 02:28:44;;;;;;;;;;;18.10;36.50;;;;;;5086215;28;42861;-73
2022/03/26 02:31:13;;;;;;;;;;;18.00;36.50;;;;;;5085511;28;42925;-73
2022/03/26 02:33:38;;;;;;;;;;;17.90;36.40;;;;;;5084869;28;42929;-74
2022/03/26 02:36:04;;;;;;;;;;;18.00;36.90;;;;;;5085640;28;43577;-73
2022/03/26 02:38:30;;;;;;;;;;;18.00;36.80;;;;;;5084861;28;43003;-73
2022/03/26 02:40:55;;;;;;;;;;;18.00;37.10;;;;;;5084919;28;44323;-73
2022/03/26 02:43:21;;;;;;;;;;;18.20;37.00;;;;;;5084989;28;43062;-73
2022/03/26 02:45:46;;;;;;;;;;;17.70;36.30;;;;;;5084444;28;43747;-75
2022/03/26 02:48:13;;;;;;;;;;;18.00;36.80;;;;;;5083045;28;42937;-73
2022/03/26 02:50:47;;;;;;;;;;;18.10;36.50;;;;;;5084353;28;43723;-73
2022/03/26 02:53:13;;;;;;;;;;;18.00;36.20;;;;;;5084190;28;42992;-74
2022/03/26 02:55:38;;;;;;;;;;;18.00;36.70;;;;;;5084692;28;43502;-72
2022/03/26 02:58:05;;;;;;;;;;;18.20;36.80;;;;;;5084133;28;42871;-73
2022/03/26 03:00:31;;;;;;;;;;;18.10;36.70;;;;;;5084193;28;43488;-75
2022/03/26 03:02:57;;;;;;;;;;;17.90;36.20;;;;;;5083743;28;43237;-74
2022/03/26 03:05:22;;;;;;;;;;;17.90;36.10;;;;;;5084692;28;43515;-72
2022/03/26 03:07:48;;;;;;;;;;;18.00;36.70;;;;;;5085403;28;43048;-74
2022/03/26 03:10:15;;;;;;;;;;;17.90;36.60;;;;;;5084434;28;42973;-73
2022/03/26 03:12:41;;;;;;;;;;;17.90;36.00;;;;;;5083330;28;43008;-74
2022/03/26 03:15:07;;;;;;;;;;;18.00;36.50;;;;;;5084789;28;43003;-73
2022/03/26 03:17:39;;;;;;;;;;;17.90;36.10;;;;;;5083172;28;43001;-76
2022/03/26 03:20:08;;;;;;;;;;;18.20;36.40;;;;;;5084864;28;43534;-74
2022/03/26 03:22:34;;;;;;;;;;;18.00;34.80;;;;;;5085234;28;43215;-74
2022/03/26 03:24:59;;;;;;;;;;;18.10;36.20;;;;;;5065571;28;43412;-74
2022/03/26 03:27:25;;;;;;;;;;;17.90;36.70;;;;;;5084383;28;42921;-73
2022/03/26 03:29:51;;;;;;;;;;;18.10;36.30;;;;;;5083389;28;43384;-74
2022/03/26 03:32:16;;;;;;;;;;;18.00;36.10;;;;;;5083480;28;42870;-74
2022/03/26 03:34:42;;;;;;;;;;;18.00;36.60;;;;;;5083862;28;42950;-74
2022/03/26 03:37:07;;;;;;;;;;;18.10;36.50;;;;;;5083918;28;43006;-73
2022/03/26 03:39:33;;;;;;;;;;;17.90;36.40;;;;;;5083586;28;42941;-74
2022/03/26 03:41:58;;;;;;;;;;;17.90;36.10;;;;;;5064750;28;43033;-73
2022/03/26 03:44:25;;;;;;;;;;;18.00;36.10;;;;;;5084286;28;43435;-73
2022/03/26 03:46:51;;;;;;;;;;;17.80;36.50;;;;;;5082684;28;42965;-74
2022/03/26 03:49:16;;;;;;;;;;;18.00;36.50;;;;;;5083337;28;42813;-74
2022/03/26 03:51:42;;;;;;;;;;;17.90;36.50;;;;;;5083531;28;43101;-73
2022/03/26 03:54:08;;;;;;;;;;;18.20;36.20;;;;;;5083897;28;43942;-74
2022/03/26 03:56:34;;;;;;;;;;;17.90;36.00;;;;;;5082605;28;42900;-79
2022/03/26 03:58:59;;;;;;;;;;;17.90;36.40;;;;;;5083410;28;43385;-74
2022/03/26 04:01:25;;;;;;;;;;;18.00;36.50;;;;;;5082625;28;43079;-74
2022/03/26 04:03:50;;;;;;;;;;;17.90;35.90;;;;;;5082326;28;43151;-73
2022/03/26 04:06:16;;;;;;;;;;;17.90;36.30;;;;;;5082781;28;43177;-74
2022/03/26 04:08:42;;;;;;;;;;;17.90;35.80;;;;;;5083338;28;43539;-74
2022/03/26 04:11:07;;;;;;;;;;;17.90;36.10;;;;;;5083452;28;42981;-73
2022/03/26 04:13:33;;;;;;;;;;;18.10;36.20;;;;;;5083287;28;43659;-74
2022/03/26 04:15:59;;;;;;;;;;;17.80;36.20;;;;;;5082533;28;42943;-72
2022/03/26 04:18:24;;;;;;;;;;;17.90;36.20;;;;;;5083616;28;43019;-72
2022/03/26 04:20:51;;;;;;;;;;;18.10;35.90;;;;;;5084120;28;43180;-75
2022/03/26 04:23:18;;;;;;;;;;;17.90;35.80;;;;;;5083454;28;43832;-73
2022/03/26 04:25:44;;;;;;;;;;;17.90;36.30;;;;;;5083883;28;42839;-74
2022/03/26 04:28:09;;;;;;;;;;;17.90;35.70;;;;;;5084325;28;43451;-75
2022/03/26 04:30:35;;;;;;;;;;;17.90;35.60;;;;;;5082976;28;42877;-74
2022/03/26 04:33:00;;;;;;;;;;;17.90;36.10;;;;;;5083567;28;44038;-76
2022/03/26 04:35:27;;;;;;;;;;;18.10;35.70;;;;;;5083134;28;42945;-74
2022/03/26 04:37:55;;;;;;;;;;;17.80;36.10;;;;;;5083712;27;43077;-74
2022/03/26 04:40:22;;;;;;;;;;;18.00;35.60;;;;;;5087739;28;43061;-73
2022/03/26 04:42:47;;;;;;;;;;;17.80;36.00;;;;;;5086991;28;42991;-74
2022/03/26 04:45:13;;;;;;;;;;;17.80;35.30;;;;;;5087229;28;42819;-74
2022/03/26 04:47:38;;;;;;;;;;;18.00;35.50;;;;;;5086454;28;43178;-75
2022/03/26 04:50:05;;;;;;;;;;;18.00;36.00;;;;;;5087330;28;42969;-74
2022/03/26 04:52:31;;;;;;;;;;;18.10;35.60;;;;;;5084320;28;43548;-73
2022/03/26 04:54:56;;;;;;;;;;;18.10;35.60;;;;;;5086482;28;42978;-74
2022/03/26 04:57:22;;;;;;;;;;;18.00;35.60;;;;;;5072463;28;43619;-75
2022/03/26 04:59:47;;;;;;;;;;;17.90;35.40;;;;;;5072254;28;43014;-74
2022/03/26 05:02:13;;;;;;;;;;;17.90;36.00;;;;;;5087444;28;42917;-74
2022/03/26 05:04:39;;;;;;;;;;;17.90;35.90;;;;;;5076816;28;43208;-74
2022/03/26 05:07:45;;;;;;;;;;;17.90;35.90;;;;;;5085813;28;43402;-72
2022/03/26 05:09:50;;;;;;;;;;;17.80;35.50;;;;;;5086444;28;42942;-73
2022/03/26 05:12:17;;;;;;;;;;;14.30;33.60;;;;;;5085718;28;43875;-73
2022/03/26 05:14:43;;;;;;;;;;;17.90;35.40;;;;;;5067179;28;42961;-72
2022/03/26 05:17:09;;;;;;;;;;;17.90;35.90;;;;;;5079054;28;43040;-73
2022/03/26 05:19:34;;;;;;;;;;;17.80;35.90;;;;;;5083540;28;43000;-73
2022/03/26 05:22:00;;;;;;;;;;;17.90;35.60;;;;;;5082973;28;43164;-74
2022/03/26 05:24:26;;;;;;;;;;;17.90;35.40;;;;;;5085963;28;43067;-74
2022/03/26 05:26:51;;;;;;;;;;;17.60;35.20;;;;;;5085509;28;43333;-74
2022/03/26 05:29:17;;;;;;;;;;;17.80;35.30;;;;;;5085186;28;43255;-73
2022/03/26 05:31:43;;;;;;;;;;;17.80;35.70;;;;;;5085576;28;43154;-72
2022/03/26 05:34:11;;;;;;;;;;;17.10;34.40;;;;;;5085822;28;43058;-73
2022/03/26 05:36:37;;;;;;;;;;;17.00;34.40;;;;;;5085652;28;43413;-82
2022/03/26 05:39:02;;;;;;;;;;;16.60;34.60;;;;;;5085996;28;43299;-75
2022/03/26 05:41:28;;;;;;;;;;;16.30;35.10;;;;;;5084227;28;43122;-76
2022/03/26 05:43:53;;;;;;;;;;;16.20;36.00;;;;;;5086039;28;42890;-74
2022/03/26 05:46:19;;;;;;;;;;;16.30;35.00;;;;;;5084206;28;43527;-77
2022/03/26 05:48:45;;;;;;;;;;;16.20;34.90;;;;;;5085670;28;42940;-75
2022/03/26 05:51:10;;;;;;;;;;;16.10;35.40;;;;;;5084568;28;43394;-77
2022/03/26 05:53:36;;;;;;;;;;;16.00;34.90;;;;;;5085704;28;43036;-76
2022/03/26 05:56:01;;;;;;;;;;;15.90;34.90;;;;;;5085658;28;42987;-77
2022/03/26 05:58:27;;;;;;;;;;;16.40;35.20;;;;;;5086675;28;43019;-76
2022/03/26 06:00:52;;;;;;;;;;;16.10;35.50;;;;;;5083253;28;43012;-75
2022/03/26 06:03:18;;;;;;;;;;;15.90;35.10;;;;;;5065446;28;43187;-75
2022/03/26 06:05:44;;;;;;;;;;;16.10;35.10;;;;;;5084863;28;43229;-78
2022/03/26 06:08:10;;;;;;;;;;;15.90;35.70;;;;;;5074285;28;43090;-76
2022/03/26 06:10:36;;;;;;;;;;;15.80;35.40;;;;;;5080243;28;44379;-77
2022/03/26 06:13:01;;;;;;;;;;;15.90;35.90;;;;;;5086544;28;43272;-76
2022/03/26 06:15:27;;;;;;;;;;;15.90;35.40;;;;;;5086184;28;42941;-72
2022/03/26 06:17:52;;;;;;;;;;;16.00;35.60;;;;;;5086270;28;42891;-74
2022/03/26 06:20:18;;;;;;;;;;;16.00;35.80;;;;;;5086013;28;43584;-73
2022/03/26 06:22:44;;;;;;;;;;;16.10;34.50;;;;;;5086101;28;42823;-74
2022/03/26 06:25:09;;;;;;;;;;;16.20;34.30;;;;;;5086355;28;43004;-74
2022/03/26 06:27:35;;;;;;;;;;;16.30;34.00;;;;;;5086076;28;43057;-74
2022/03/26 06:30:00;;;;;;;;;;;16.30;33.90;;;;;;5085780;28;43253;-74
2022/03/26 06:32:26;;;;;;;;;;;16.30;34.00;;;;;;5080330;28;43015;-73
2022/03/26 06:34:52;;;;;;;;;;;16.30;33.80;;;;;;5079819;28;42869;-73
2022/03/26 06:37:19;;;;;;;;;;;16.30;34.70;;;;;;5072499;28;42886;-75
2022/03/26 06:39:45;;;;;;;;;;;;;;;;;;5085815;28;43543;-75
2022/03/26 06:42:11;;;;;;;;;;;16.40;33.80;;;;;;5085882;28;42862;-76
2022/03/26 06:44:36;;;;;;;;;;;16.40;34.30;;;;;;5084937;28;44305;-75
2022/03/26 06:47:02;;;;;;;;;;;16.50;33.90;;;;;;5086280;28;42884;-76
2022/03/26 06:49:30;;;;;;;;;;;16.50;34.20;;;;;;5084766;28;42862;-74
2022/03/26 06:51:56;;;;;;;;;;;16.60;33.90;;;;;;5085750;28;43041;-73
2022/03/26 06:54:21;;;;;;;;;;;16.60;34.10;;;;;;5070499;28;43523;-77
2022/03/26 06:56:47;;;;;;;;;;;16.70;33.70;;;;;;5065587;28;42903;-76
2022/03/26 06:59:12;;;;;;;;;;;16.60;34.10;;;;;;5064864;28;43800;-78
2022/03/26 07:01:38;;;;;;;;;;;16.60;34.10;;;;;;5064285;28;43003;-74
2022/03/26 07:04:03;;;;;;;;;;;16.90;34.30;;;;;;5084044;28;43991;-74
2022/03/26 07:06:29;;;;;;;;;;;16.70;34.40;;;;;;5085905;28;42866;-75
2022/03/26 07:08:55;;;;;;;;;;;16.70;34.60;;;;;;5085309;28;43274;-75
2022/03/26 07:11:20;;;;;;;;;;;16.80;34.30;;;;;;5084783;28;42969;-73
2022/03/26 07:13:46;;;;;;;;;;;17.00;34.50;;;;;;5084698;28;43615;-76
2022/03/26 07:16:12;;;;;;;;;;;16.90;34.70;;;;;;5085311;28;43552;-75
2022/03/26 07:18:37;;;;;;;;;;;16.90;35.40;;;;;;5084321;28;42917;-74
2022/03/26 07:21:03;;;;;;;;;;;17.00;35.40;;;;;;5084318;28;42877;-75
2022/03/26 07:23:29;;;;;;;;;;;17.20;35.00;;;;;;5084787;28;43457;-73
2022/03/26 07:25:55;;;;;;;;;;;17.20;35.20;;;;;;5084832;28;42918;-75
2022/03/26 07:28:20;;;;;;;;;;;17.00;35.00;;;;;;5084430;28;42857;-74
2022/03/26 07:30:46;;;;;;;;;;;17.10;35.40;;;;;;5084956;28;42890;-75
2022/03/26 07:33:12;;;;;;;;;;;17.10;34.90;;;;;;5084702;28;43692;-76
2022/03/26 07:35:37;;;;;;;;;;;17.20;35.40;;;;;;5084511;28;43038;-76
2022/03/26 07:38:03;;;;;;;;;;;17.30;35.00;;;;;;5084695;28;43014;-80
2022/03/26 07:40:29;;;;;;;;;;;17.40;35.20;;;;;;5085089;28;43051;-77
2022/03/26 07:42:54;;;;;;;;;;;17.40;35.10;;;;;;5083465;28;43472;-74
2022/03/26 07:45:20;;;;;;;;;;;17.50;35.00;;;;;;5085490;28;43175;-74
2022/03/26 07:47:45;;;;;;;;;;;17.40;34.70;;;;;;5084705;28;43680;-78
2022/03/26 07:50:11;;;;;;;;;;;17.50;34.60;;;;;;5084458;28;43013;-73
2022/03/26 07:52:38;;;;;;;;;;;17.40;34.80;;;;;;5084845;28;42917;-73
2022/03/26 07:55:04;;;;;;;;;;;17.40;34.30;;;;;;5084768;28;42839;-75
2022/03/26 07:57:30;;;;;;;;;;;17.60;34.60;;;;;;5085035;28;43567;-76
2022/03/26 07:59:55;;;;;;;;;;;17.60;34.40;;;;;;5066585;28;42823;-75
2022/03/26 08:02:21;;;;;;;;;;;17.50;34.20;;;;;;5084367;28;42931;-75
2022/03/26 08:04:46;;;;;;;;;;;17.60;34.10;;;;;;5084400;28;42938;-75
2022/03/26 08:07:12;;;;;;;;;;;17.60;34.50;;;;;;5084432;28;43550;-75
2022/03/26 08:09:38;;;;;;;;;;;17.60;34.10;;;;;;5084373;28;42960;-75
2022/03/26 08:12:04;;;;;;;;;;;17.60;33.70;;;;;;5083455;27;43018;-80
2022/03/26 08:14:30;;;;;;;;;;;17.60;33.50;;;;;;5088617;28;43301;-75
2022/03/26 08:16:55;;;;;;;;;;;17.60;33.50;;;;;;5087708;28;42951;-75
2022/03/26 08:19:21;;;;;;;;;;;17.70;33.60;;;;;;5087975;28;42928;-74
2022/03/26 08:21:47;;;;;;;;;;;17.80;34.40;;;;;;5088040;28;43455;-76
2022/03/26 08:24:13;;;;;;;;;;;17.70;33.80;;;;;;5087966;28;43044;-75
2022/03/26 08:26:39;;;;;;;;;;;17.80;33.60;;;;;;5088337;28;43605;-76
2022/03/26 08:29:04;;;;;;;;;;;17.70;34.30;;;;;;5088494;28;42951;-75
2022/03/26 08:31:31;;;;;;;;;;;17.90;33.40;;;;;;5087356;28;42933;-76
2022/03/26 08:33:57;;;;;;;;;;;16.90;32.90;;;;;;5088390;28;43088;-75
2022/03/26 08:36:22;;;;;;;;;;;17.80;33.50;;;;;;5088632;28;42847;-75
2022/03/26 08:38:48;;;;;;;;;;;17.90;33.50;;;;;;5088688;28;43016;-75
2022/03/26 08:41:15;;;;;;;;;;;17.80;33.80;;;;;;5087960;28;42936;-76
2022/03/26 08:43:40;;;;;;;;;;;17.90;34.10;;;;;;5088368;28;43104;-77
2022/03/26 08:46:06;;;;;;;;;;;17.80;34.50;;;;;;5088023;28;42882;-75
2022/03/26 08:48:31;;;;;;;;;;;17.90;33.70;;;;;;5088197;28;43028;-74
2022/03/26 08:50:57;;;;;;;;;;;17.90;33.70;;;;;;5088100;28;42843;-75
2022/03/26 08:53:23;;;;;;;;;;;17.90;33.70;;;;;;5088189;28;42939;-75
2022/03/26 08:55:49;;;;;;;;;;;17.90;33.50;;;;;;5088234;28;43432;-75
2022/03/26 08:58:17;;;;;;;;;;;17.90;32.20;;;;;;5087688;28;42794;-75
2022/03/26 09:00:43;;;;;;;;;;;17.80;32.50;;;;;;5087824;28;43556;-75
2022/03/26 09:03:08;;;;;;;;;;;17.80;32.10;;;;;;5088085;28;43067;-76
2022/03/26 09:05:34;;;;;;;;;;;18.00;33.20;;;;;;5087271;28;43234;-80
2022/03/26 09:07:59;;;;;;;;;;;17.90;33.20;;;;;;5068967;28;42934;-74
2022/03/26 09:10:25;;;;;;;;;;;17.90;33.20;;;;;;5087294;28;43169;-74
2022/03/26 09:12:52;;;;;;;;;;;17.90;31.70;;;;;;5087582;28;43226;-76
2022/03/26 09:15:17;;;;;;;;;;;17.90;32.90;;;;;;5087380;28;42927;-73
2022/03/26 09:17:43;;;;;;;;;;;17.90;30.10;;;;;;5087443;28;43237;-73
2022/03/26 09:20:09;;;;;;;;;;;18.00;32.60;;;;;;5087760;28;43683;-73
2022/03/26 09:22:35;;;;;;;;;;;18.00;31.40;;;;;;5087029;28;42821;-73
2022/03/26 09:25:02;;;;;;;;;;;17.90;31.80;;;;;;5086604;27;42941;-74
2022/03/26 09:27:27;;;;;;;;;;;18.00;32.00;;;;;;5086885;28;43052;-80
2022/03/26 09:29:53;;;;;;;;;;;18.00;32.30;;;;;;5087363;28;43168;-73
2022/03/26 09:32:19;;;;;;;;;;;18.20;31.90;;;;;;5087325;28;43151;-73
2022/03/26 09:34:44;;;;;;;;;;;18.10;32.40;;;;;;5087596;28;43597;-74
2022/03/26 09:37:11;;;;;;;;;;;18.00;32.40;;;;;;5087947;28;43017;-76
2022/03/26 09:39:37;;;;;;;;;;;18.10;31.60;;;;;;5086295;28;43052;-73
2022/03/26 09:42:03;;;;;;;;;;;18.10;32.20;;;;;;5087745;28;43371;-77
2022/03/26 09:44:30;;;;;;;;;;;18.10;32.10;;;;;;5086760;28;43495;-73
2022/03/26 09:46:56;;;;;;;;;;;18.00;31.60;;;;;;5087376;28;42886;-81
2022/03/26 09:49:21;;;;;;;;;;;18.10;32.10;;;;;;5087221;28;42990;-76
2022/03/26 09:51:53;;;;;;;;;;;18.10;31.90;;;;;;5087686;28;42970;-73
2022/03/26 09:54:19;;;;;;;;;;;18.10;31.20;;;;;;5086928;28;43540;-75
2022/03/26 09:56:44;;;;;;;;;;;18.00;31.30;;;;;;5087156;28;42919;-75
2022/03/26 09:59:10;;;;;;;;;;;18.10;32.30;;;;;;5087097;28;43372;-77
2022/03/26 10:01:35;;;;;;;;;;;18.20;31.80;;;;;;5086550;28;42910;-74
2022/03/26 10:04:11;;;;;;;;;;;18.30;31.60;;;;;;5086289;28;43326;-74
2022/03/26 10:06:37;;;;;;;;;;;18.20;30.90;;;;;;5086796;28;43107;-74
2022/03/26 10:09:03;;;;;;;;;;;18.20;31.10;;;;;;5086837;28;42925;-78
2022/03/26 10:11:32;;;;;;;;;;;18.20;30.80;;;;;;5086882;28;42999;-74
2022/03/26 10:13:58;;;;;;;;;;;18.10;31.20;;;;;;5086498;28;43557;-74
2022/03/26 10:16:24;;;;;;;;;;;18.20;31.10;;;;;;5086224;28;42914;-72
2022/03/26 10:18:50;;;;;;;;;;;18.10;31.20;;;;;;5086553;28;43589;-73
2022/03/26 10:21:17;;;;;;;;;;;18.20;31.00;;;;;;5086520;28;42949;-74
2022/03/26 10:23:43;;;;;;;;;;;18.20;31.10;;;;;;5086249;28;43667;-73
2022/03/26 10:26:09;;;;;;;;;;;18.00;31.50;;;;;;5085983;28;42973;-73
2022/03/26 10:28:35;;;;;;;;;;;18.20;31.10;;;;;;5086103;28;44470;-75
2022/03/26 10:34:15;;;;;;;;;;;18.20;31.20;;;;;;5086826;28;42924;-74
2022/03/26 10:36:44;;;;;;;;;;;18.20;30.90;;;;;;5086032;28;42911;-77
2022/03/26 10:39:20;;;;;;;;;;;18.30;31.20;;;;;;5066301;28;44358;-73
2022/03/26 10:41:47;;;;;;;;;;;18.40;30.70;;;;;;5063327;28;43252;-75
2022/03/26 10:44:13;;;;;;;;;;;18.30;31.00;;;;;;5077347;28;44121;-74
2022/03/26 10:46:41;;;;;;;;;;;18.20;31.10;;;;;;5085542;28;42887;-74
2022/03/26 10:49:07;;;;;;;;;;;18.40;31.10;;;;;;5085485;28;43390;-73
2022/03/26 10:51:37;;;;;;;;;;;18.40;31.30;;;;;;5084940;28;43021;-73
2022/03/26 10:54:09;;;;;;;;;;;18.20;30.90;;;;;;5084001;28;44656;-74
2022/03/26 10:56:37;;;;;;;;;;;18.20;30.90;;;;;;5064973;28;43201;-78
2022/03/26 10:59:02;;;;;;;;;;;18.40;31.10;;;;;;5085149;28;43576;-75
2022/03/26 11:01:28;;;;;;;;;;;18.20;31.40;;;;;;5085026;28;42996;-74
2022/03/26 11:03:54;;;;;;;;;;;18.30;31.30;;;;;;5085227;28;42887;-76
2022/03/26 11:06:24;;;;;;;;;;;18.30;32.00;;;;;;5084746;28;43114;-75
2022/03/26 11:08:50;;;;;;;;;;;18.00;31.80;;;;;;5084990;28;43341;-75
2022/03/26 11:11:16;;;;;;;;;;;18.20;31.10;;;;;;5081041;28;42971;-76
2022/03/26 11:13:46;;;;;;;;;;;18.30;32.00;;;;;;5065050;28;43638;-75
2022/03/26 11:16:32;;;;;;;;;;;18.30;31.20;;;;;;5074585;28;43292;-75
2022/03/26 11:19:01;;;;;;;;;;;18.40;31.10;;;;;;5083619;28;42895;-74
2022/03/26 11:21:45;;;;;;;;;;;18.20;31.10;;;;;;5085658;28;43078;-76
2022/03/26 11:24:24;;;;;;;;;;;18.30;31.10;;;;;;5084868;28;43046;-72
2022/03/26 11:27:03;;;;;;;;;;;18.40;30.90;;;;;;5083331;28;43035;-72
2022/03/26 11:29:44;;;;;;;;;;;18.30;30.60;;;;;;5084840;28;42909;-74
2022/03/26 11:32:16;;;;;;;;;;;18.40;30.70;;;;;;5084627;28;43076;-73
2022/03/26 11:34:42;;;;;;;;;;;18.40;30.30;;;;;;5084435;28;42891;-73
2022/03/26 11:37:14;;;;;;;;;;;18.30;30.70;;;;;;5084406;28;42964;-74
2022/03/26 11:39:47;;;;;;;;;;;18.30;30.90;;;;;;5085116;28;42923;-75
2022/03/26 11:42:27;;;;;;;;;;;18.50;31.20;;;;;;5084394;28;42984;-76
2022/03/26 11:50:41;;;;;;;;;;;18.40;31.40;;;;;;5084227;28;43664;-73
2022/03/26 11:53:08;;;;;;;;;;;18.40;31.50;;;;;;5081107;28;43031;-76
2022/03/26 11:55:40;;;;;;;;;;;18.30;31.40;;;;;;5084435;28;42957;-81
2022/03/26 11:58:12;;;;;;;;;;;18.30;32.00;;;;;;5084722;28;43030;-74
2022/03/26 12:00:51;;;;;;;;;;;18.40;31.30;;;;;;5083288;28;43902;-76
2022/03/26 12:03:20;;;;;;;;;;;18.30;31.50;;;;;;5084417;28;42874;-75
2022/03/26 12:08:49;;;;;;;;;;;18.30;31.20;;;;;;5081572;28;43028;-75
2022/03/26 12:11:14;;;;;;;;;;;17.00;30.50;;;;;;5082735;28;43356;-75
2022/03/26 12:13:40;;;;;;;;;;;18.40;32.70;;;;;;5084196;28;42890;-76
2022/03/26 12:16:07;;;;;;;;;;;18.30;32.00;;;;;;5081665;28;44207;-75
2022/03/26 12:18:36;;;;;;;;;;;18.30;31.90;;;;;;5083258;28;43024;-83
2022/03/26 12:21:20;;;;;;;;;;;18.40;31.90;;;;;;5082603;28;43000;-85
2022/03/26 12:23:46;;;;;;;;;;;18.50;31.90;;;;;;5079359;28;43209;-75
2022/03/26 12:26:12;;;;;;;;;;;18.50;32.50;;;;;;5081886;28;43623;-75
2022/03/26 12:28:39;;;;;;;;;;;18.40;32.40;;;;;;5083872;28;42885;-74
2022/03/26 12:31:05;;;;;;;;;;;18.30;31.50;;;;;;5081602;28;43730;-75
2022/03/26 12:33:39;;;;;;;;;;;18.50;32.30;;;;;;5081918;28;42910;-81
2022/03/26 12:36:05;;;;;;;;;;;18.40;31.10;;;;;;5081830;28;43510;-87
2022/03/26 12:38:30;;;;;;;;;;;18.40;32.20;;;;;;5083370;28;42929;-74
2022/03/26 12:40:57;;;;;;;;;;;18.20;31.30;;;;;;5079646;28;43486;-75
2022/03/26 12:43:24;;;;;;;;;;;18.40;32.10;;;;;;5083142;28;43027;-76
2022/03/26 12:45:51;;;;;;;;;;;18.50;31.20;;;;;;5078039;28;44165;-78
2022/03/26 12:48:16;;;;;;;;;;;18.50;31.30;;;;;;5063662;28;43105;-77
2022/03/26 12:50:43;;;;;;;;;;;18.20;30.90;;;;;;5062830;28;45023;-78
2022/03/26 12:53:12;;;;;;;;;;;18.40;31.40;;;;;;5059969;28;43150;-74
2022/03/26 12:55:38;;;;;;;;;;;18.50;32.00;;;;;;5080071;28;43574;-76
2022/03/26 13:01:07;;;;;;;;;;;18.50;32.10;;;;;;5085055;28;42878;-75
2022/03/26 13:03:32;;;;;;;;;;;18.40;32.00;;;;;;5083435;28;42942;-87
2022/03/26 13:05:58;;;;;;;;;;;18.60;32.10;;;;;;5085233;28;42965;-73
2022/03/26 13:08:26;;;;;;;;;;;18.60;31.90;;;;;;5067560;28;43303;-82
2022/03/26 13:10:52;;;;;;;;;;;18.50;31.60;;;;;;5082646;28;43121;-75
2022/03/26 13:13:18;;;;;;;;;;;18.60;31.80;;;;;;5085546;28;43154;-77
2022/03/26 13:15:59;;;;;;;;;;;18.60;31.60;;;;;;5065729;28;44419;-77
2022/03/26 13:18:24;;;;;;;;;;;18.50;31.50;;;;;;5083708;28;43203;-75
2022/03/26 13:20:50;;;;;;;;;;;18.50;31.40;;;;;;5085928;28;43047;-79
2022/03/26 13:23:16;;;;;;;;;;;18.60;31.10;;;;;;5087193;28;42907;-76
2022/03/26 13:25:42;;;;;;;;;;;18.40;31.30;;;;;;5084406;28;43069;-77
2022/03/26 13:28:18;;;;;;;;;;;18.60;31.30;;;;;;5087933;28;43149;-75
2022/03/26 13:30:44;;;;;;;;;;;18.50;31.10;;;;;;5086747;28;43357;-76
2022/03/26 13:33:15;;;;;;;;;;;18.60;31.20;;;;;;5087021;28;43024;-74
2022/03/26 13:35:45;;;;;;;;;;;18.60;31.30;;;;;;5081769;28;44072;-75
2022/03/26 13:38:11;;;;;;;;;;;18.50;31.20;;;;;;5086316;28;43297;-74
2022/03/26 13:40:36;;;;;;;;;;;18.60;31.90;;;;;;5087518;28;42924;-81
2022/03/26 13:43:02;;;;;;;;;;;18.50;32.00;;;;;;5079017;28;42852;-73
2022/03/26 13:45:28;;;;;;;;;;;18.50;31.90;;;;;;5074385;28;42923;-81
2022/03/26 13:47:55;;;;;;;;;;;18.50;31.40;;;;;;5071679;28;42975;-74
2022/03/26 13:50:21;;;;;;;;;;;18.50;31.90;;;;;;5063367;28;43166;-75
2022/03/26 13:52:49;;;;;;;;;;;18.50;31.70;;;;;;5063231;28;43053;-74
2022/03/26 13:55:34;;;;;;;;;;;18.70;31.90;;;;;;5064227;28;43304;-74
2022/03/26 13:58:07;;;;;;;;;;;18.50;31.60;;;;;;5062149;28;43294;-72
2022/03/26 14:00:33;;;;;;;;;;;18.40;31.60;;;;;;5056072;28;44525;-74
2022/03/26 14:03:02;;;;;;;;;;;18.50;31.50;;;;;;5064436;28;43120;-75
2022/03/26 14:05:29;;;;;;;;;;;18.60;31.50;;;;;;5062909;28;43184;-74
2022/03/26 14:07:55;;;;;;;;;;;18.50;31.40;;;;;;5066119;28;43010;-79
2022/03/26 14:10:31;;;;;;;;;;;18.50;30.90;;;;;;5065589;28;43362;-74
2022/03/26 14:12:56;;;;;;;;;;;18.70;30.60;;;;;;5048208;28;43354;-76
2022/03/26 14:15:22;;;;;;;;;;;18.50;30.90;;;;;;5066549;28;43600;-83
2022/03/26 14:17:47;;;;;;;;;;;18.40;31.30;;;;;;5047770;28;43039;-74
2022/03/26 14:20:13;;;;;;;;;;;18.50;30.90;;;;;;5065776;28;42967;-75
2022/03/26 14:22:38;;;;;;;;;;;18.50;31.60;;;;;;5066532;28;42963;-78
2022/03/26 14:25:04;;;;;;;;;;;18.70;31.10;;;;;;5065589;28;42909;-75
2022/03/26 14:27:29;;;;;;;;;;;18.70;31.00;;;;;;5066577;28;42888;-74
2022/03/26 14:29:56;;;;;;;;;;;18.50;31.40;;;;;;5065876;28;43967;-77